sensor_id;sensor_type;location;lat;lon;timestamp;temperature;humidity
51841;DHT22;37888;53.246;6.658;2023-05-24T00:02:10;8.30;99.90
51841;DHT22;37888;53.246;6.658;2023-05-24T00:08:46;8.30;99.90
51841;DHT22;37888;53.246;6.658;2023-05-24T00:11:12;8.30;99.90
51841;DHT22;37888;53.246;6.658;2023-05-24T00:13:38;8.40;99.90
51841;DHT22;37888;53.246;6.658;2023-05-24T00:16:04;8.40;99.90
51841;DHT22;37888;53.246;6.658;2023-05-24T00:18:30;8.50;99.90
51841;DHT22;37888;53.246;6.658;2023-05-24T00:20:59;8.50;99.90
51841;DHT22;37888;53.246;6.658;2023-05-24T00:23:25;8.50;99.90
51841;DHT22;37888;53.246;6.658;2023-05-24T00:25:51;8.50;99.90
51841;DHT22;37888;53.246;6.658;2023-05-24T00:28:17;8.50;99.90
51841;DHT22;37888;53.246;6.658;2023-05-24T00:30:43;8.50;99.90
51841;DHT22;37888;53.246;6.658;2023-05-24T00:33:09;8.50;99.90
51841;DHT22;37888;53.246;6.658;2023-05-24T00:35:34;8.50;99.90
51841;DHT22;37888;53.246;6.658;2023-05-24T00:38:03;8.50;99.90
51841;DHT22;37888;53.246;6.658;2023-05-24T00:40:28;8.50;99.90
51841;DHT22;37888;53.246;6.658;2023-05-24T00:42:54;8.50;99.90
51841;DHT22;37888;53.246;6.658;2023-05-24T00:45:20;8.50;99.90
51841;DHT22;37888;53.246;6.658;2023-05-24T00:47:46;8.50;99.90
51841;DHT22;37888;53.246;6.658;2023-05-24T00:50:12;8.60;99.90
51841;DHT22;37888;53.246;6.658;2023-05-24T00:52:41;8.50;99.90
51841;DHT22;37888;53.246;6.658;2023-05-24T00:55:07;8.60;99.90
51841;DHT22;37888;53.246;6.658;2023-05-24T00:57:35;8.60;99.90
51841;DHT22;37888;53.246;6.658;2023-05-24T01:00:02;8.60;99.90
51841;DHT22;37888;53.246;6.658;2023-05-24T01:02:29;8.50;99.90
51841;DHT22;37888;53.246;6.658;2023-05-24T01:04:55;8.50;99.90
51841;DHT22;37888;53.246;6.658;2023-05-24T01:10:34;8.50;99.90
51841;DHT22;37888;53.246;6.658;2023-05-24T01:13:08;8.50;99.90
51841;DHT22;37888;53.246;6.658;2023-05-24T01:18:36;8.50;99.90
51841;DHT22;37888;53.246;6.658;2023-05-24T01:24:04;8.40;99.90
51841;DHT22;37888;53.246;6.658;2023-05-24T01:29:21;8.30;99.90
51841;DHT22;37888;53.246;6.658;2023-05-24T01:31:47;8.30;99.90
51841;DHT22;37888;53.246;6.658;2023-05-24T01:34:14;8.30;99.90
51841;DHT22;37888;53.246;6.658;2023-05-24T01:36:39;8.20;99.90
51841;DHT22;37888;53.246;6.658;2023-05-24T01:39:05;8.20;99.90
51841;DHT22;37888;53.246;6.658;2023-05-24T01:41:42;8.20;99.90
51841;DHT22;37888;53.246;6.658;2023-05-24T01:44:28;8.30;99.90
51841;DHT22;37888;53.246;6.658;2023-05-24T01:49:53;8.30;99.90
51841;DHT22;37888;53.246;6.658;2023-05-24T01:52:22;8.40;99.90
51841;DHT22;37888;53.246;6.658;2023-05-24T01:54:52;8.40;99.90
51841;DHT22;37888;53.246;6.658;2023-05-24T01:57:19;8.50;99.90
51841;DHT22;37888;53.246;6.658;2023-05-24T01:59:48;8.50;99.90
51841;DHT22;37888;53.246;6.658;2023-05-24T02:02:15;8.60;99.90
51841;DHT22;37888;53.246;6.658;2023-05-24T02:04:41;8.60;99.90
51841;DHT22;37888;53.246;6.658;2023-05-24T02:07:06;8.70;99.90
51841;DHT22;37888;53.246;6.658;2023-05-24T02:09:34;8.70;99.90
51841;DHT22;37888;53.246;6.658;2023-05-24T02:11:59;8.70;99.90
51841;DHT22;37888;53.246;6.658;2023-05-24T02:14:25;8.80;99.90
51841;DHT22;37888;53.246;6.658;2023-05-24T02:16:51;8.80;99.90
51841;DHT22;37888;53.246;6.658;2023-05-24T02:19:17;8.90;99.90
51841;DHT22;37888;53.246;6.658;2023-05-24T02:21:43;8.90;99.90
51841;DHT22;37888;53.246;6.658;2023-05-24T02:24:09;8.90;99.90
51841;DHT22;37888;53.246;6.658;2023-05-24T02:26:37;9.00;99.90
51841;DHT22;37888;53.246;6.658;2023-05-24T02:29:04;9.00;99.90
51841;DHT22;37888;53.246;6.658;2023-05-24T02:31:29;9.10;99.90
51841;DHT22;37888;53.246;6.658;2023-05-24T02:33:56;9.00;99.90
51841;DHT22;37888;53.246;6.658;2023-05-24T02:36:22;9.00;99.90
51841;DHT22;37888;53.246;6.658;2023-05-24T02:38:52;9.00;99.90
51841;DHT22;37888;53.246;6.658;2023-05-24T02:41:18;9.10;99.90
51841;DHT22;37888;53.246;6.658;2023-05-24T02:43:44;9.00;99.90
51841;DHT22;37888;53.246;6.658;2023-05-24T02:46:10;9.00;99.90
51841;DHT22;37888;53.246;6.658;2023-05-24T02:48:36;9.00;99.90
51841;DHT22;37888;53.246;6.658;2023-05-24T02:51:02;9.00;99.90
51841;DHT22;37888;53.246;6.658;2023-05-24T02:53:28;9.00;99.90
51841;DHT22;37888;53.246;6.658;2023-05-24T02:55:54;9.00;99.90
51841;DHT22;37888;53.246;6.658;2023-05-24T02:58:20;9.10;99.90
51841;DHT22;37888;53.246;6.658;2023-05-24T03:00:46;9.10;99.90
51841;DHT22;37888;53.246;6.658;2023-05-24T03:03:12;9.10;99.90
51841;DHT22;37888;53.246;6.658;2023-05-24T03:05:37;9.10;99.90
51841;DHT22;37888;53.246;6.658;2023-05-24T03:08:03;9.10;99.90
51841;DHT22;37888;53.246;6.658;2023-05-24T03:10:29;9.10;99.90
51841;DHT22;37888;53.246;6.658;2023-05-24T03:12:55;9.20;99.90
51841;DHT22;37888;53.246;6.658;2023-05-24T03:15:20;9.20;99.90
51841;DHT22;37888;53.246;6.658;2023-05-24T03:17:46;9.10;99.90
51841;DHT22;37888;53.246;6.658;2023-05-24T03:20:12;9.10;99.90
51841;DHT22;37888;53.246;6.658;2023-05-24T03:22:38;9.10;99.90
51841;DHT22;37888;53.246;6.658;2023-05-24T03:25:04;9.10;99.90
51841;DHT22;37888;53.246;6.658;2023-05-24T03:27:29;9.20;99.90
51841;DHT22;37888;53.246;6.658;2023-05-24T03:29:55;9.20;99.90
51841;DHT22;37888;53.246;6.658;2023-05-24T03:32:21;9.20;99.90
51841;DHT22;37888;53.246;6.658;2023-05-24T03:34:46;9.50;99.90
51841;DHT22;37888;53.246;6.658;2023-05-24T03:37:12;9.30;99.90
51841;DHT22;37888;53.246;6.658;2023-05-24T03:39:38;9.40;99.90
51841;DHT22;37888;53.246;6.658;2023-05-24T03:42:04;9.30;99.90
51841;DHT22;37888;53.246;6.658;2023-05-24T03:44:29;9.40;99.90
51841;DHT22;37888;53.246;6.658;2023-05-24T03:46:55;9.40;99.90
51841;DHT22;37888;53.246;6.658;2023-05-24T03:49:21;9.40;99.90
51841;DHT22;37888;53.246;6.658;2023-05-24T03:51:47;9.40;99.90
51841;DHT22;37888;53.246;6.658;2023-05-24T03:54:12;9.50;99.90
51841;DHT22;37888;53.246;6.658;2023-05-24T03:56:38;9.50;99.90
51841;DHT22;37888;53.246;6.658;2023-05-24T03:59:04;9.50;99.90
51841;DHT22;37888;53.246;6.658;2023-05-24T04:01:30;9.60;99.90
51841;DHT22;37888;53.246;6.658;2023-05-24T04:03:57;9.60;99.90
51841;DHT22;37888;53.246;6.658;2023-05-24T04:06:22;9.60;99.90
51841;DHT22;37888;53.246;6.658;2023-05-24T04:08:58;9.70;99.90
51841;DHT22;37888;53.246;6.658;2023-05-24T04:11:24;9.70;99.90
51841;DHT22;37888;53.246;6.658;2023-05-24T04:13:56;9.70;99.90
51841;DHT22;37888;53.246;6.658;2023-05-24T04:16:22;9.70;99.90
51841;DHT22;37888;53.246;6.658;2023-05-24T04:18:53;9.80;99.90
51841;DHT22;37888;53.246;6.658;2023-05-24T04:21:19;9.80;99.90
51841;DHT22;37888;53.246;6.658;2023-05-24T04:23:45;9.30;99.90
51841;DHT22;37888;53.246;6.658;2023-05-24T04:26:11;9.90;99.90
51841;DHT22;37888;53.246;6.658;2023-05-24T04:28:37;9.90;99.90
51841;DHT22;37888;53.246;6.658;2023-05-24T04:31:06;9.90;99.90
51841;DHT22;37888;53.246;6.658;2023-05-24T04:33:35;9.90;99.90
51841;DHT22;37888;53.246;6.658;2023-05-24T04:36:01;9.90;99.90
51841;DHT22;37888;53.246;6.658;2023-05-24T04:38:28;9.90;99.90
51841;DHT22;37888;53.246;6.658;2023-05-24T04:40:54;9.90;99.90
51841;DHT22;37888;53.246;6.658;2023-05-24T04:43:23;9.90;99.90
51841;DHT22;37888;53.246;6.658;2023-05-24T04:45:51;10.00;99.90
51841;DHT22;37888;53.246;6.658;2023-05-24T04:48:19;9.90;99.90
51841;DHT22;37888;53.246;6.658;2023-05-24T04:50:46;9.90;99.90
51841;DHT22;37888;53.246;6.658;2023-05-24T04:53:12;10.00;99.90
51841;DHT22;37888;53.246;6.658;2023-05-24T04:55:40;10.00;99.90
51841;DHT22;37888;53.246;6.658;2023-05-24T04:58:05;10.00;99.90
51841;DHT22;37888;53.246;6.658;2023-05-24T05:00:31;10.00;99.90
51841;DHT22;37888;53.246;6.658;2023-05-24T05:02:57;10.10;99.90
51841;DHT22;37888;53.246;6.658;2023-05-24T05:05:23;10.20;99.90
51841;DHT22;37888;53.246;6.658;2023-05-24T05:07:49;10.20;99.90
51841;DHT22;37888;53.246;6.658;2023-05-24T05:10:14;10.30;99.90
51841;DHT22;37888;53.246;6.658;2023-05-24T05:12:41;10.40;99.90
51841;DHT22;37888;53.246;6.658;2023-05-24T05:15:07;10.50;99.90
51841;DHT22;37888;53.246;6.658;2023-05-24T05:17:33;10.60;99.90
51841;DHT22;37888;53.246;6.658;2023-05-24T05:19:59;10.70;99.90
51841;DHT22;37888;53.246;6.658;2023-05-24T05:22:25;10.70;99.90
51841;DHT22;37888;53.246;6.658;2023-05-24T05:24:51;10.80;99.90
51841;DHT22;37888;53.246;6.658;2023-05-24T05:27:17;10.80;99.90
51841;DHT22;37888;53.246;6.658;2023-05-24T05:29:42;10.90;99.90
51841;DHT22;37888;53.246;6.658;2023-05-24T05:32:08;10.90;99.90
51841;DHT22;37888;53.246;6.658;2023-05-24T05:34:34;10.90;99.90
51841;DHT22;37888;53.246;6.658;2023-05-24T05:37:00;10.90;99.90
51841;DHT22;37888;53.246;6.658;2023-05-24T05:39:26;10.90;99.90
51841;DHT22;37888;53.246;6.658;2023-05-24T05:41:51;11.00;99.90
51841;DHT22;37888;53.246;6.658;2023-05-24T05:44:17;11.00;99.90
51841;DHT22;37888;53.246;6.658;2023-05-24T05:46:43;11.00;99.90
51841;DHT22;37888;53.246;6.658;2023-05-24T05:49:14;11.00;99.90
51841;DHT22;37888;53.246;6.658;2023-05-24T05:51:40;11.00;99.90
51841;DHT22;37888;53.246;6.658;2023-05-24T05:54:07;11.20;99.90
51841;DHT22;37888;53.246;6.658;2023-05-24T05:56:42;11.20;99.90
51841;DHT22;37888;53.246;6.658;2023-05-24T05:59:13;11.20;99.90
51841;DHT22;37888;53.246;6.658;2023-05-24T06:01:44;11.30;99.90
51841;DHT22;37888;53.246;6.658;2023-05-24T06:04:14;11.30;99.90
51841;DHT22;37888;53.246;6.658;2023-05-24T06:06:40;11.40;99.90
51841;DHT22;37888;53.246;6.658;2023-05-24T06:09:06;11.80;99.90
51841;DHT22;37888;53.246;6.658;2023-05-24T06:11:32;11.90;99.90
51841;DHT22;37888;53.246;6.658;2023-05-24T06:13:59;11.80;99.90
51841;DHT22;37888;53.246;6.658;2023-05-24T06:16:25;11.70;99.90
51841;DHT22;37888;53.246;6.658;2023-05-24T06:18:50;11.30;99.90
51841;DHT22;37888;53.246;6.658;2023-05-24T06:21:16;11.50;99.90
51841;DHT22;37888;53.246;6.658;2023-05-24T06:23:42;11.40;99.90
51841;DHT22;37888;53.246;6.658;2023-05-24T06:26:08;11.50;99.90
51841;DHT22;37888;53.246;6.658;2023-05-24T06:28:38;11.60;99.90
51841;DHT22;37888;53.246;6.658;2023-05-24T06:31:04;11.70;99.90
51841;DHT22;37888;53.246;6.658;2023-05-24T06:33:30;11.70;99.90
51841;DHT22;37888;53.246;6.658;2023-05-24T06:35:59;11.80;99.90
51841;DHT22;37888;53.246;6.658;2023-05-24T06:38:25;12.10;99.90
51841;DHT22;37888;53.246;6.658;2023-05-24T06:40:52;12.50;99.90
51841;DHT22;37888;53.246;6.658;2023-05-24T06:43:18;13.40;99.90
51841;DHT22;37888;53.246;6.658;2023-05-24T06:45:45;14.30;99.90
51841;DHT22;37888;53.246;6.658;2023-05-24T06:48:11;15.00;99.90
51841;DHT22;37888;53.246;6.658;2023-05-24T06:50:36;15.20;99.90
51841;DHT22;37888;53.246;6.658;2023-05-24T06:53:03;14.90;99.90
51841;DHT22;37888;53.246;6.658;2023-05-24T06:55:29;14.20;99.90
51841;DHT22;37888;53.246;6.658;2023-05-24T06:57:55;13.50;99.90
51841;DHT22;37888;53.246;6.658;2023-05-24T07:00:21;13.40;99.90
51841;DHT22;37888;53.246;6.658;2023-05-24T07:02:47;13.60;99.90
51841;DHT22;37888;53.246;6.658;2023-05-24T07:05:12;13.30;99.90
51841;DHT22;37888;53.246;6.658;2023-05-24T07:07:39;13.20;99.90
51841;DHT22;37888;53.246;6.658;2023-05-24T07:10:09;13.10;99.90
51841;DHT22;37888;53.246;6.658;2023-05-24T07:12:36;13.40;99.90
51841;DHT22;37888;53.246;6.658;2023-05-24T07:15:03;13.80;99.90
51841;DHT22;37888;53.246;6.658;2023-05-24T07:17:29;14.50;99.90
51841;DHT22;37888;53.246;6.658;2023-05-24T07:19:55;14.30;99.90
51841;DHT22;37888;53.246;6.658;2023-05-24T07:22:22;13.70;99.90
51841;DHT22;37888;53.246;6.658;2023-05-24T07:24:50;13.60;99.90
51841;DHT22;37888;53.246;6.658;2023-05-24T07:27:15;13.70;99.90
51841;DHT22;37888;53.246;6.658;2023-05-24T07:29:41;13.40;99.90
51841;DHT22;37888;53.246;6.658;2023-05-24T07:32:07;13.90;99.90
51841;DHT22;37888;53.246;6.658;2023-05-24T07:34:36;14.20;99.90
51841;DHT22;37888;53.246;6.658;2023-05-24T07:37:04;15.40;99.90
51841;DHT22;37888;53.246;6.658;2023-05-24T07:39:30;15.60;99.90
51841;DHT22;37888;53.246;6.658;2023-05-24T07:41:55;15.50;99.90
51841;DHT22;37888;53.246;6.658;2023-05-24T07:44:21;16.10;99.90
51841;DHT22;37888;53.246;6.658;2023-05-24T07:46:48;16.10;99.90
51841;DHT22;37888;53.246;6.658;2023-05-24T07:49:14;15.60;99.90
51841;DHT22;37888;53.246;6.658;2023-05-24T07:51:40;15.80;99.90
51841;DHT22;37888;53.246;6.658;2023-05-24T07:54:06;15.30;99.90
51841;DHT22;37888;53.246;6.658;2023-05-24T07:56:31;14.50;99.90
51841;DHT22;37888;53.246;6.658;2023-05-24T07:58:57;13.90;99.90
51841;DHT22;37888;53.246;6.658;2023-05-24T08:01:33;13.50;99.90
51841;DHT22;37888;53.246;6.658;2023-05-24T08:04:01;13.80;99.90
51841;DHT22;37888;53.246;6.658;2023-05-24T08:06:29;14.80;99.90
51841;DHT22;37888;53.246;6.658;2023-05-24T08:08:55;15.90;99.90
51841;DHT22;37888;53.246;6.658;2023-05-24T08:11:21;16.90;99.90
51841;DHT22;37888;53.246;6.658;2023-05-24T08:13:47;16.90;99.90
51841;DHT22;37888;53.246;6.658;2023-05-24T08:16:13;16.30;99.90
51841;DHT22;37888;53.246;6.658;2023-05-24T08:18:38;15.70;99.90
51841;DHT22;37888;53.246;6.658;2023-05-24T08:21:04;15.30;99.90
51841;DHT22;37888;53.246;6.658;2023-05-24T08:23:30;15.00;99.90
51841;DHT22;37888;53.246;6.658;2023-05-24T08:25:57;14.50;99.90
51841;DHT22;37888;53.246;6.658;2023-05-24T08:28:23;14.10;99.90
51841;DHT22;37888;53.246;6.658;2023-05-24T08:30:51;14.00;99.90
51841;DHT22;37888;53.246;6.658;2023-05-24T08:33:17;14.40;99.90
51841;DHT22;37888;53.246;6.658;2023-05-24T08:35:43;14.70;99.90
51841;DHT22;37888;53.246;6.658;2023-05-24T08:38:09;14.50;99.90
51841;DHT22;37888;53.246;6.658;2023-05-24T08:40:35;14.20;99.90
51841;DHT22;37888;53.246;6.658;2023-05-24T08:43:01;14.30;99.90
51841;DHT22;37888;53.246;6.658;2023-05-24T08:45:31;15.30;99.90
51841;DHT22;37888;53.246;6.658;2023-05-24T08:47:57;15.50;99.90
51841;DHT22;37888;53.246;6.658;2023-05-24T08:50:24;15.40;99.90
51841;DHT22;37888;53.246;6.658;2023-05-24T08:52:51;16.10;99.90
51841;DHT22;37888;53.246;6.658;2023-05-24T08:55:17;16.70;99.90
51841;DHT22;37888;53.246;6.658;2023-05-24T08:57:44;16.50;99.90
51841;DHT22;37888;53.246;6.658;2023-05-24T09:00:11;16.40;99.90
51841;DHT22;37888;53.246;6.658;2023-05-24T09:02:38;16.40;99.90
51841;DHT22;37888;53.246;6.658;2023-05-24T09:05:11;15.80;99.90
51841;DHT22;37888;53.246;6.658;2023-05-24T09:07:39;15.10;99.90
51841;DHT22;37888;53.246;6.658;2023-05-24T09:10:07;14.60;99.90
51841;DHT22;37888;53.246;6.658;2023-05-24T09:12:33;14.50;99.90
51841;DHT22;37888;53.246;6.658;2023-05-24T09:15:01;14.20;99.90
51841;DHT22;37888;53.246;6.658;2023-05-24T09:17:29;14.10;99.90
51841;DHT22;37888;53.246;6.658;2023-05-24T09:19:57;14.00;99.90
51841;DHT22;37888;53.246;6.658;2023-05-24T09:22:26;13.90;99.90
51841;DHT22;37888;53.246;6.658;2023-05-24T09:24:59;13.70;99.90
51841;DHT22;37888;53.246;6.658;2023-05-24T09:27:26;13.70;99.90
51841;DHT22;37888;53.246;6.658;2023-05-24T09:29:52;13.70;99.90
51841;DHT22;37888;53.246;6.658;2023-05-24T09:32:21;13.60;99.90
51841;DHT22;37888;53.246;6.658;2023-05-24T09:34:50;13.50;99.90
51841;DHT22;37888;53.246;6.658;2023-05-24T09:37:19;13.50;99.90
51841;DHT22;37888;53.246;6.658;2023-05-24T09:39:47;13.50;99.90
51841;DHT22;37888;53.246;6.658;2023-05-24T09:42:17;13.50;99.90
51841;DHT22;37888;53.246;6.658;2023-05-24T09:44:47;13.60;99.90
51841;DHT22;37888;53.246;6.658;2023-05-24T09:47:13;13.80;99.90
51841;DHT22;37888;53.246;6.658;2023-05-24T09:49:40;13.80;99.90
51841;DHT22;37888;53.246;6.658;2023-05-24T09:52:06;13.90;99.90
51841;DHT22;37888;53.246;6.658;2023-05-24T09:54:32;13.90;99.90
51841;DHT22;37888;53.246;6.658;2023-05-24T09:57:02;13.90;99.90
51841;DHT22;37888;53.246;6.658;2023-05-24T09:59:31;13.70;99.90
51841;DHT22;37888;53.246;6.658;2023-05-24T10:02:16;13.90;99.90
51841;DHT22;37888;53.246;6.658;2023-05-24T10:04:46;14.00;99.90
51841;DHT22;37888;53.246;6.658;2023-05-24T10:07:12;14.30;99.90
51841;DHT22;37888;53.246;6.658;2023-05-24T10:09:40;14.40;99.90
51841;DHT22;37888;53.246;6.658;2023-05-24T10:12:10;14.50;99.90
51841;DHT22;37888;53.246;6.658;2023-05-24T10:14:37;14.40;99.90
51841;DHT22;37888;53.246;6.658;2023-05-24T10:17:05;14.30;99.90
51841;DHT22;37888;53.246;6.658;2023-05-24T10:19:31;14.40;99.90
51841;DHT22;37888;53.246;6.658;2023-05-24T10:21:57;14.20;99.90
51841;DHT22;37888;53.246;6.658;2023-05-24T10:24:28;14.20;99.90
51841;DHT22;37888;53.246;6.658;2023-05-24T10:26:56;14.10;99.90
51841;DHT22;37888;53.246;6.658;2023-05-24T10:29:55;14.00;99.90
51841;DHT22;37888;53.246;6.658;2023-05-24T10:32:27;13.80;99.90
51841;DHT22;37888;53.246;6.658;2023-05-24T10:34:58;13.70;99.90
51841;DHT22;37888;53.246;6.658;2023-05-24T10:37:25;13.60;99.90
51841;DHT22;37888;53.246;6.658;2023-05-24T10:39:52;13.50;99.90
51841;DHT22;37888;53.246;6.658;2023-05-24T10:42:18;13.40;99.90
51841;DHT22;37888;53.246;6.658;2023-05-24T10:44:44;13.30;99.90
51841;DHT22;37888;53.246;6.658;2023-05-24T10:47:11;13.30;99.90
51841;DHT22;37888;53.246;6.658;2023-05-24T10:49:55;13.30;99.90
51841;DHT22;37888;53.246;6.658;2023-05-24T10:52:34;13.30;99.90
51841;DHT22;37888;53.246;6.658;2023-05-24T10:55:07;13.30;99.90
51841;DHT22;37888;53.246;6.658;2023-05-24T10:57:38;13.40;99.90
51841;DHT22;37888;53.246;6.658;2023-05-24T11:02:49;13.40;99.90
51841;DHT22;37888;53.246;6.658;2023-05-24T11:05:15;13.40;99.90
51841;DHT22;37888;53.246;6.658;2023-05-24T11:07:41;13.30;99.90
51841;DHT22;37888;53.246;6.658;2023-05-24T11:10:15;13.20;99.90
51841;DHT22;37888;53.246;6.658;2023-05-24T11:12:41;13.20;99.90
51841;DHT22;37888;53.246;6.658;2023-05-24T11:15:10;13.20;99.90
51841;DHT22;37888;53.246;6.658;2023-05-24T11:20:41;13.20;99.90
51841;DHT22;37888;53.246;6.658;2023-05-24T11:23:07;13.20;99.90
51841;DHT22;37888;53.246;6.658;2023-05-24T11:25:39;13.20;99.90
51841;DHT22;37888;53.246;6.658;2023-05-24T11:28:10;13.20;99.90
51841;DHT22;37888;53.246;6.658;2023-05-24T11:30:46;13.20;99.90
51841;DHT22;37888;53.246;6.658;2023-05-24T11:33:22;13.00;99.90
51841;DHT22;37888;53.246;6.658;2023-05-24T11:35:52;13.10;99.90
51841;DHT22;37888;53.246;6.658;2023-05-24T11:38:20;13.10;99.90
51841;DHT22;37888;53.246;6.658;2023-05-24T11:40:47;13.10;99.90
51841;DHT22;37888;53.246;6.658;2023-05-24T11:43:18;13.20;99.90
51841;DHT22;37888;53.246;6.658;2023-05-24T11:45:45;13.20;99.90
51841;DHT22;37888;53.246;6.658;2023-05-24T11:48:14;13.30;99.90
51841;DHT22;37888;53.246;6.658;2023-05-24T11:50:41;13.30;99.90
51841;DHT22;37888;53.246;6.658;2023-05-24T11:53:12;13.20;99.90
51841;DHT22;37888;53.246;6.658;2023-05-24T11:55:38;13.30;99.90
51841;DHT22;37888;53.246;6.658;2023-05-24T11:58:21;13.40;99.90
51841;DHT22;37888;53.246;6.658;2023-05-24T12:00:48;13.40;99.90
51841;DHT22;37888;53.246;6.658;2023-05-24T12:03:14;13.40;99.90
51841;DHT22;37888;53.246;6.658;2023-05-24T12:05:41;13.40;99.90
51841;DHT22;37888;53.246;6.658;2023-05-24T12:08:09;13.30;99.90
51841;DHT22;37888;53.246;6.658;2023-05-24T12:10:38;13.30;99.90
51841;DHT22;37888;53.246;6.658;2023-05-24T12:13:04;13.40;99.90
51841;DHT22;37888;53.246;6.658;2023-05-24T12:15:30;13.50;99.90
51841;DHT22;37888;53.246;6.658;2023-05-24T12:17:57;13.50;99.90
51841;DHT22;37888;53.246;6.658;2023-05-24T12:20:26;13.50;99.90
51841;DHT22;37888;53.246;6.658;2023-05-24T12:22:54;13.50;99.90
51841;DHT22;37888;53.246;6.658;2023-05-24T12:25:21;13.40;99.90
51841;DHT22;37888;53.246;6.658;2023-05-24T12:27:54;13.40;99.90
51841;DHT22;37888;53.246;6.658;2023-05-24T12:30:22;13.40;99.90
51841;DHT22;37888;53.246;6.658;2023-05-24T12:32:48;13.40;99.90
51841;DHT22;37888;53.246;6.658;2023-05-24T12:35:16;13.40;99.90
51841;DHT22;37888;53.246;6.658;2023-05-24T12:37:43;13.40;99.90
51841;DHT22;37888;53.246;6.658;2023-05-24T12:40:20;13.50;99.90
51841;DHT22;37888;53.246;6.658;2023-05-24T12:42:50;13.60;99.90
51841;DHT22;37888;53.246;6.658;2023-05-24T12:45:19;13.70;99.90
51841;DHT22;37888;53.246;6.658;2023-05-24T12:47:57;14.00;99.90
51841;DHT22;37888;53.246;6.658;2023-05-24T12:50:25;14.20;99.90
51841;DHT22;37888;53.246;6.658;2023-05-24T12:52:51;14.30;99.90
51841;DHT22;37888;53.246;6.658;2023-05-24T12:55:26;14.50;99.90
51841;DHT22;37888;53.246;6.658;2023-05-24T12:57:53;14.50;99.90
51841;DHT22;37888;53.246;6.658;2023-05-24T13:00:24;14.60;99.90
51841;DHT22;37888;53.246;6.658;2023-05-24T13:02:54;14.60;99.90
51841;DHT22;37888;53.246;6.658;2023-05-24T13:05:33;14.60;99.90
51841;DHT22;37888;53.246;6.658;2023-05-24T13:07:59;14.60;99.90
51841;DHT22;37888;53.246;6.658;2023-05-24T13:10:25;14.70;99.90
51841;DHT22;37888;53.246;6.658;2023-05-24T13:13:08;14.80;99.90
51841;DHT22;37888;53.246;6.658;2023-05-24T13:15:33;14.60;99.90
51841;DHT22;37888;53.246;6.658;2023-05-24T13:18:01;14.50;99.90
51841;DHT22;37888;53.246;6.658;2023-05-24T13:20:28;14.40;99.90
51841;DHT22;37888;53.246;6.658;2023-05-24T13:22:54;14.30;99.90
51841;DHT22;37888;53.246;6.658;2023-05-24T13:27:47;14.20;99.90
51841;DHT22;37888;53.246;6.658;2023-05-24T13:30:13;14.40;99.90
51841;DHT22;37888;53.246;6.658;2023-05-24T13:32:39;14.50;99.90
51841;DHT22;37888;53.246;6.658;2023-05-24T13:35:04;14.40;99.90
51841;DHT22;37888;53.246;6.658;2023-05-24T13:37:30;14.40;99.90
51841;DHT22;37888;53.246;6.658;2023-05-24T13:39:56;14.30;99.90
51841;DHT22;37888;53.246;6.658;2023-05-24T13:42:22;14.20;99.90
51841;DHT22;37888;53.246;6.658;2023-05-24T13:44:48;14.30;99.90
51841;DHT22;37888;53.246;6.658;2023-05-24T13:47:13;14.30;99.90
51841;DHT22;37888;53.246;6.658;2023-05-24T13:49:44;14.40;99.90
51841;DHT22;37888;53.246;6.658;2023-05-24T13:52:09;14.40;99.90
51841;DHT22;37888;53.246;6.658;2023-05-24T13:54:35;14.50;99.90
51841;DHT22;37888;53.246;6.658;2023-05-24T13:57:01;14.50;99.90
51841;DHT22;37888;53.246;6.658;2023-05-24T13:59:27;14.40;99.90
51841;DHT22;37888;53.246;6.658;2023-05-24T14:01:55;14.30;99.90
51841;DHT22;37888;53.246;6.658;2023-05-24T14:04:21;14.30;99.90
51841;DHT22;37888;53.246;6.658;2023-05-24T14:06:46;14.30;99.90
51841;DHT22;37888;53.246;6.658;2023-05-24T14:09:12;14.40;99.90
51841;DHT22;37888;53.246;6.658;2023-05-24T14:11:38;14.40;99.90
51841;DHT22;37888;53.246;6.658;2023-05-24T14:14:04;14.40;99.90
51841;DHT22;37888;53.246;6.658;2023-05-24T14:16:30;14.30;99.90
51841;DHT22;37888;53.246;6.658;2023-05-24T14:18:56;14.40;99.90
51841;DHT22;37888;53.246;6.658;2023-05-24T14:21:22;14.40;99.90
51841;DHT22;37888;53.246;6.658;2023-05-24T14:23:50;14.50;99.90
51841;DHT22;37888;53.246;6.658;2023-05-24T14:26:17;14.60;99.90
51841;DHT22;37888;53.246;6.658;2023-05-24T14:28:43;14.70;99.90
51841;DHT22;37888;53.246;6.658;2023-05-24T14:31:08;14.60;99.90
51841;DHT22;37888;53.246;6.658;2023-05-24T14:33:34;14.60;99.90
51841;DHT22;37888;53.246;6.658;2023-05-24T14:36:00;14.60;99.90
51841;DHT22;37888;53.246;6.658;2023-05-24T14:38:26;14.50;99.90
51841;DHT22;37888;53.246;6.658;2023-05-24T14:40:52;14.50;99.90
51841;DHT22;37888;53.246;6.658;2023-05-24T14:43:19;14.40;99.90
51841;DHT22;37888;53.246;6.658;2023-05-24T14:45:45;14.40;99.90
51841;DHT22;37888;53.246;6.658;2023-05-24T14:48:11;14.40;99.90
51841;DHT22;37888;53.246;6.658;2023-05-24T14:50:40;14.40;99.90
51841;DHT22;37888;53.246;6.658;2023-05-24T14:53:07;14.40;99.90
51841;DHT22;37888;53.246;6.658;2023-05-24T14:55:39;14.50;99.90
51841;DHT22;37888;53.246;6.658;2023-05-24T14:58:06;14.60;99.90
51841;DHT22;37888;53.246;6.658;2023-05-24T15:00:39;14.70;99.90
51841;DHT22;37888;53.246;6.658;2023-05-24T15:03:06;14.70;99.90
51841;DHT22;37888;53.246;6.658;2023-05-24T15:05:36;14.70;99.90
51841;DHT22;37888;53.246;6.658;2023-05-24T15:08:02;14.80;99.90
51841;DHT22;37888;53.246;6.658;2023-05-24T15:10:29;14.80;99.90
51841;DHT22;37888;53.246;6.658;2023-05-24T15:12:55;14.80;99.90
51841;DHT22;37888;53.246;6.658;2023-05-24T15:15:21;14.70;99.90
51841;DHT22;37888;53.246;6.658;2023-05-24T15:17:47;14.60;99.90
51841;DHT22;37888;53.246;6.658;2023-05-24T15:20:22;14.50;99.90
51841;DHT22;37888;53.246;6.658;2023-05-24T15:22:48;14.60;99.90
51841;DHT22;37888;53.246;6.658;2023-05-24T15:25:14;14.60;99.90
51841;DHT22;37888;53.246;6.658;2023-05-24T15:27:39;14.70;99.90
51841;DHT22;37888;53.246;6.658;2023-05-24T15:30:06;14.70;99.90
51841;DHT22;37888;53.246;6.658;2023-05-24T15:32:32;14.80;99.90
51841;DHT22;37888;53.246;6.658;2023-05-24T15:34:57;14.90;99.90
51841;DHT22;37888;53.246;6.658;2023-05-24T15:37:25;14.90;99.90
51841;DHT22;37888;53.246;6.658;2023-05-24T15:39:51;14.90;99.90
51841;DHT22;37888;53.246;6.658;2023-05-24T15:42:17;15.00;99.90
51841;DHT22;37888;53.246;6.658;2023-05-24T15:44:44;15.00;99.90
51841;DHT22;37888;53.246;6.658;2023-05-24T15:47:10;15.00;99.90
51841;DHT22;37888;53.246;6.658;2023-05-24T15:49:36;14.90;99.90
51841;DHT22;37888;53.246;6.658;2023-05-24T15:52:04;14.90;99.90
51841;DHT22;37888;53.246;6.658;2023-05-24T15:54:30;14.90;99.90
51841;DHT22;37888;53.246;6.658;2023-05-24T15:56:56;14.90;99.90
51841;DHT22;37888;53.246;6.658;2023-05-24T15:59:21;14.80;99.90
51841;DHT22;37888;53.246;6.658;2023-05-24T16:01:47;14.60;99.90
51841;DHT22;37888;53.246;6.658;2023-05-24T16:04:13;14.50;99.90